createdAt,value
2023-05-24T00:00:03.297Z,4
2023-05-24T00:01:03.651Z,4
2023-05-24T00:02:03.817Z,4
2023-05-24T00:03:03.075Z,4
2023-05-24T00:04:03.325Z,4
2023-05-24T00:05:03.393Z,4
2023-05-24T00:06:02.599Z,4
2023-05-24T00:07:02.955Z,4
2023-05-24T00:08:02.252Z,4
2023-05-24T00:09:02.625Z,4
2023-05-24T00:10:02.591Z,4
2023-05-24T00:11:02.436Z,4
2023-05-24T00:12:02.420Z,4
2023-05-24T00:13:03.275Z,4
2023-05-24T00:14:03.169Z,4
2023-05-24T00:15:02.924Z,5
2023-05-24T00:16:02.959Z,4
2023-05-24T00:17:03.044Z,4
2023-05-24T00:18:02.730Z,4
2023-05-24T00:19:02.742Z,4
2023-05-24T00:20:03.810Z,4
2023-05-24T00:21:02.318Z,5
2023-05-24T00:22:02.838Z,4
2023-05-24T00:23:02.699Z,5
2023-05-24T00:24:02.893Z,4
2023-05-24T00:25:03.052Z,4
2023-05-24T00:26:03.210Z,5
2023-05-24T00:27:02.542Z,5
2023-05-24T00:28:03.012Z,4
2023-05-24T00:29:03.456Z,4
2023-05-24T00:30:02.996Z,5
2023-05-24T00:31:03.057Z,5
2023-05-24T00:32:03.086Z,5
2023-05-24T00:33:03.622Z,5
2023-05-24T00:34:03.200Z,5
2023-05-24T00:35:03.525Z,5
2023-05-24T00:36:03.413Z,5
2023-05-24T00:37:03.589Z,5
2023-05-24T00:38:03.277Z,5
2023-05-24T00:39:03.257Z,5
2023-05-24T00:40:02.737Z,5
2023-05-24T00:41:02.747Z,5
2023-05-24T00:42:03.209Z,5
2023-05-24T00:43:02.280Z,5
2023-05-24T00:44:02.301Z,5
2023-05-24T00:45:02.246Z,5
2023-05-24T00:46:02.477Z,6
2023-05-24T00:47:02.730Z,6
2023-05-24T00:48:02.378Z,6
2023-05-24T00:49:02.641Z,6
2023-05-24T00:50:02.214Z,6
2023-05-24T00:51:02.661Z,6
2023-05-24T00:52:02.728Z,6
2023-05-24T00:53:02.990Z,6
2023-05-24T00:54:02.974Z,6
2023-05-24T00:55:03.124Z,6
2023-05-24T00:56:02.970Z,6
2023-05-24T00:57:03.300Z,6
2023-05-24T00:58:02.704Z,6
2023-05-24T00:59:02.804Z,6
2023-05-24T01:00:02.542Z,6
2023-05-24T01:01:02.958Z,6
2023-05-24T01:02:02.796Z,7
2023-05-24T01:03:02.814Z,7
2023-05-24T01:04:02.525Z,6
2023-05-24T01:05:02.497Z,6
2023-05-24T01:06:02.232Z,7
2023-05-24T01:07:02.192Z,6
2023-05-24T01:08:02.253Z,7
2023-05-24T01:09:02.487Z,6
2023-05-24T01:10:02.637Z,6
2023-05-24T01:11:02.254Z,7
2023-05-24T01:12:02.626Z,6
2023-05-24T01:13:02.457Z,7
2023-05-24T01:14:02.465Z,7
2023-05-24T01:15:02.349Z,7
2023-05-24T01:16:02.628Z,7
2023-05-24T01:17:02.879Z,7
2023-05-24T01:18:02.599Z,7
2023-05-24T01:19:02.477Z,7
2023-05-24T01:20:02.857Z,8
2023-05-24T01:21:02.348Z,7
2023-05-24T01:22:02.721Z,7
2023-05-24T01:23:02.697Z,8
2023-05-24T01:24:02.619Z,8
2023-05-24T01:25:02.720Z,8
2023-05-24T01:26:02.925Z,8
2023-05-24T01:27:02.511Z,8
2023-05-24T01:28:02.287Z,8
2023-05-24T01:29:02.168Z,8
2023-05-24T01:30:02.069Z,7
2023-05-24T01:31:02.080Z,8
2023-05-24T01:32:02.216Z,8
2023-05-24T01:33:02.851Z,8
2023-05-24T01:34:02.537Z,8
2023-05-24T01:35:02.588Z,8
2023-05-24T01:36:02.745Z,7
2023-05-24T01:37:02.602Z,8
2023-05-24T01:38:02.167Z,8
2023-05-24T01:39:01.924Z,8
2023-05-24T01:40:01.869Z,8
2023-05-24T01:41:01.885Z,8
2023-05-24T01:42:02.263Z,8
2023-05-24T01:43:02.433Z,8
2023-05-24T01:44:02.378Z,8
2023-05-24T01:45:02.233Z,8
2023-05-24T01:46:02.389Z,8
2023-05-24T01:47:02.354Z,8
2023-05-24T01:48:02.791Z,8
2023-05-24T01:49:02.723Z,8
2023-05-24T01:50:02.957Z,8
2023-05-24T01:51:02.798Z,8
2023-05-24T01:52:02.852Z,8
2023-05-24T01:53:02.757Z,8
2023-05-24T01:54:02.584Z,8
2023-05-24T01:55:02.483Z,8
2023-05-24T01:56:02.467Z,8
2023-05-24T01:57:02.511Z,8
2023-05-24T01:58:02.000Z,8
2023-05-24T01:59:02.029Z,8
2023-05-24T02:00:01.958Z,8
2023-05-24T02:01:02.056Z,8
2023-05-24T02:02:02.413Z,8
2023-05-24T02:03:02.852Z,8
2023-05-24T02:04:02.823Z,8
2023-05-24T02:05:02.825Z,8
2023-05-24T02:06:02.726Z,8
2023-05-24T02:07:03.324Z,9
2023-05-24T02:08:02.859Z,8
2023-05-24T02:09:02.743Z,8
2023-05-24T02:10:03.300Z,8
2023-05-24T02:11:03.140Z,8
2023-05-24T02:12:02.916Z,8
2023-05-24T02:13:02.554Z,8
2023-05-24T02:14:02.402Z,8
2023-05-24T02:15:02.558Z,8
2023-05-24T02:16:02.738Z,8
2023-05-24T02:17:02.646Z,9
2023-05-24T02:18:03.018Z,8
2023-05-24T02:19:02.595Z,8
2023-05-24T02:20:02.426Z,8
2023-05-24T02:21:02.851Z,8
2023-05-24T02:22:02.698Z,8
2023-05-24T02:23:03.042Z,8
2023-05-24T02:24:03.021Z,8
2023-05-24T02:25:02.879Z,8
2023-05-24T02:26:02.655Z,8
2023-05-24T02:27:03.102Z,8
2023-05-24T02:28:02.343Z,8
2023-05-24T02:29:02.134Z,8
2023-05-24T02:30:01.850Z,8
2023-05-24T02:31:02.204Z,8
2023-05-24T02:32:02.484Z,8
2023-05-24T02:33:02.590Z,8
2023-05-24T02:34:02.297Z,8
2023-05-24T02:35:02.828Z,8
2023-05-24T02:36:02.515Z,8
2023-05-24T02:37:02.448Z,8
2023-05-24T02:38:02.687Z,8
2023-05-24T02:39:02.589Z,8
2023-05-24T02:40:02.406Z,8
2023-05-24T02:41:02.228Z,8
2023-05-24T02:42:02.233Z,8
2023-05-24T02:43:02.932Z,8
2023-05-24T02:44:02.702Z,8
2023-05-24T02:45:02.377Z,8
2023-05-24T02:46:02.876Z,8
2023-05-24T02:47:02.701Z,8
2023-05-24T02:48:02.900Z,8
2023-05-24T02:49:02.854Z,7
2023-05-24T02:50:03.026Z,8
2023-05-24T02:51:02.506Z,8
2023-05-24T02:52:02.726Z,8
2023-05-24T02:53:02.511Z,8
2023-05-24T02:54:02.438Z,8
2023-05-24T02:55:02.361Z,8
2023-05-24T02:56:02.279Z,8
2023-05-24T02:57:02.119Z,8
2023-05-24T02:58:02.560Z,8
2023-05-24T02:59:02.671Z,8
2023-05-24T03:00:02.695Z,7
2023-05-24T03:01:02.618Z,8
2023-05-24T03:02:02.437Z,8
2023-05-24T03:03:02.811Z,8
2023-05-24T03:04:02.411Z,8
2023-05-24T03:05:02.725Z,8
2023-05-24T03:06:02.693Z,8
2023-05-24T03:07:02.600Z,8
2023-05-24T03:08:02.353Z,8
2023-05-24T03:09:02.421Z,8
2023-05-24T03:10:02.197Z,8
2023-05-24T03:11:02.267Z,8
2023-05-24T03:12:02.271Z,8
2023-05-24T03:13:02.857Z,8
2023-05-24T03:14:02.541Z,8
2023-05-24T03:15:02.813Z,8
2023-05-24T03:16:02.757Z,8
2023-05-24T03:17:02.747Z,8
2023-05-24T03:18:02.522Z,8
2023-05-24T03:19:02.204Z,8
2023-05-24T03:20:02.260Z,8
2023-05-24T03:21:02.178Z,8
2023-05-24T03:22:01.907Z,8
2023-05-24T03:23:01.488Z,8
2023-05-24T03:24:02.118Z,8
2023-05-24T03:25:01.680Z,8
2023-05-24T03:26:01.679Z,8
2023-05-24T03:27:01.601Z,8
2023-05-24T03:28:02.080Z,8
2023-05-24T03:29:02.764Z,8
2023-05-24T03:30:02.498Z,8
2023-05-24T03:31:02.229Z,8
2023-05-24T03:32:02.325Z,8
2023-05-24T03:33:02.810Z,8
2023-05-24T03:34:01.975Z,8
2023-05-24T03:35:02.177Z,8
2023-05-24T03:36:01.936Z,8
2023-05-24T03:37:02.083Z,8
2023-05-24T03:38:02.166Z,8
2023-05-24T03:39:03.016Z,8
2023-05-24T03:40:02.670Z,8
2023-05-24T03:41:02.727Z,8
2023-05-24T03:42:02.480Z,8
2023-05-24T03:43:04.470Z,8
2023-05-24T03:44:02.245Z,8
2023-05-24T03:45:01.988Z,8
2023-05-24T03:46:02.417Z,8
2023-05-24T03:47:02.323Z,8
2023-05-24T03:48:01.837Z,8
2023-05-24T03:49:02.512Z,8
2023-05-24T03:50:02.637Z,8
2023-05-24T03:51:02.892Z,9
2023-05-24T03:52:02.324Z,8
2023-05-24T03:53:02.402Z,8
2023-05-24T03:54:01.780Z,9
2023-05-24T03:55:01.790Z,8
2023-05-24T03:56:01.951Z,9
2023-05-24T03:57:01.946Z,8
2023-05-24T03:58:01.989Z,8
2023-05-24T03:59:01.650Z,8
2023-05-24T04:00:01.892Z,8
2023-05-24T04:01:01.528Z,8
2023-05-24T04:02:01.852Z,8
2023-05-24T04:03:01.441Z,8
2023-05-24T04:04:01.879Z,9
2023-05-24T04:05:01.825Z,9
2023-05-24T04:06:02.021Z,9
2023-05-24T04:07:02.099Z,8
2023-05-24T04:08:02.093Z,9
2023-05-24T04:09:02.659Z,9
2023-05-24T04:10:02.535Z,9
2023-05-24T04:11:02.212Z,9
2023-05-24T04:12:02.403Z,9
2023-05-24T04:13:02.373Z,8
2023-05-24T04:14:02.327Z,8
2023-05-24T04:15:01.654Z,9
2023-05-24T04:16:01.722Z,9
2023-05-24T04:17:02.058Z,9
2023-05-24T04:18:01.804Z,9
2023-05-24T04:19:02.510Z,9
2023-05-24T04:20:02.485Z,9
2023-05-24T04:21:02.465Z,8
2023-05-24T04:22:02.133Z,9
2023-05-24T04:23:02.190Z,9
2023-05-24T04:24:02.446Z,8
2023-05-24T04:25:02.733Z,9
2023-05-24T04:26:02.897Z,8
2023-05-24T04:27:02.974Z,8
2023-05-24T04:28:03.002Z,9
2023-05-24T04:29:01.627Z,8
2023-05-24T04:30:01.699Z,9
2023-05-24T04:31:01.841Z,9
2023-05-24T04:32:01.915Z,8
2023-05-24T04:33:01.763Z,9
2023-05-24T04:34:02.095Z,9
2023-05-24T04:35:02.387Z,9
2023-05-24T04:36:02.516Z,9
2023-05-24T04:37:02.621Z,9
2023-05-24T04:38:02.532Z,8
2023-05-24T04:39:01.890Z,9
2023-05-24T04:40:01.706Z,9
2023-05-24T04:41:01.910Z,9
2023-05-24T04:42:01.632Z,9
2023-05-24T04:43:01.943Z,9
2023-05-24T04:44:02.696Z,9
2023-05-24T04:45:02.579Z,9
2023-05-24T04:46:02.655Z,9
2023-05-24T04:47:02.713Z,9
2023-05-24T04:48:02.636Z,9
2023-05-24T04:49:02.046Z,9
2023-05-24T04:50:02.101Z,9
2023-05-24T04:51:01.995Z,9
2023-05-24T04:52:01.610Z,9
2023-05-24T04:53:02.110Z,9
2023-05-24T04:54:02.844Z,10
2023-05-24T04:55:02.822Z,10
2023-05-24T04:56:02.796Z,10
2023-05-24T04:57:02.570Z,9
2023-05-24T04:58:02.374Z,10
2023-05-24T04:59:01.554Z,10
2023-05-24T05:00:01.607Z,9
2023-05-24T05:01:01.658Z,9
2023-05-24T05:02:01.710Z,9
2023-05-24T05:03:01.714Z,10
2023-05-24T05:04:02.952Z,9
2023-05-24T05:05:02.916Z,9
2023-05-24T05:06:03.214Z,10
2023-05-24T05:07:03.163Z,10
2023-05-24T05:08:03.423Z,10
2023-05-24T05:09:02.874Z,10
2023-05-24T05:10:02.599Z,10
2023-05-24T05:11:02.604Z,10
2023-05-24T05:12:02.256Z,10
2023-05-24T05:13:02.787Z,10
2023-05-24T05:14:03.249Z,10
2023-05-24T05:15:03.135Z,10
2023-05-24T05:16:03.194Z,10
2023-05-24T05:17:02.833Z,10
2023-05-24T05:18:03.619Z,10
2023-05-24T05:19:02.904Z,10
2023-05-24T05:20:03.074Z,10
2023-05-24T05:21:02.969Z,10
2023-05-24T05:22:02.996Z,10
2023-05-24T05:23:02.595Z,11
2023-05-24T05:24:03.228Z,10
2023-05-24T05:25:02.743Z,10
2023-05-24T05:26:03.120Z,11
2023-05-24T05:27:02.635Z,10
2023-05-24T05:28:02.754Z,11
2023-05-24T05:29:03.284Z,11
2023-05-24T05:30:02.661Z,11
2023-05-24T05:31:02.730Z,11
2023-05-24T05:32:03.288Z,11
2023-05-24T05:33:02.754Z,11
2023-05-24T05:34:02.239Z,11
2023-05-24T05:35:02.451Z,11
2023-05-24T05:36:02.442Z,11
2023-05-24T05:37:02.404Z,11
2023-05-24T05:38:02.202Z,11
2023-05-24T05:39:02.678Z,11
2023-05-24T05:40:02.473Z,11
2023-05-24T05:41:02.203Z,11
2023-05-24T05:42:02.680Z,10
2023-05-24T05:43:02.153Z,11
2023-05-24T05:44:03.237Z,11
2023-05-24T05:45:03.444Z,11
2023-05-24T05:46:03.365Z,11
2023-05-24T05:47:03.416Z,11
2023-05-24T05:48:03.037Z,11
2023-05-24T05:49:02.519Z,11
2023-05-24T05:50:02.092Z,11
2023-05-24T05:51:02.513Z,11
2023-05-24T05:52:02.052Z,11
2023-05-24T05:53:02.156Z,11
2023-05-24T05:54:02.762Z,11
2023-05-24T05:55:02.233Z,11
2023-05-24T05:56:02.211Z,11
2023-05-24T05:57:02.711Z,11
2023-05-24T05:58:02.796Z,11
2023-05-24T05:59:02.446Z,11
2023-05-24T06:00:02.869Z,11
2023-05-24T06:01:03.079Z,11
2023-05-24T06:02:02.532Z,11
2023-05-24T06:03:03.037Z,11
2023-05-24T06:04:02.058Z,11
2023-05-24T06:05:01.846Z,11
2023-05-24T06:06:02.026Z,11
2023-05-24T06:07:02.128Z,11
2023-05-24T06:08:02.399Z,11
2023-05-24T06:09:02.945Z,11
2023-05-24T06:10:02.361Z,11
2023-05-24T06:11:02.836Z,11
2023-05-24T06:12:02.761Z,10
2023-05-24T06:13:02.660Z,10
2023-05-24T06:14:02.096Z,10
2023-05-24T06:15:02.124Z,10
2023-05-24T06:16:02.628Z,10
2023-05-24T06:17:02.313Z,10
2023-05-24T06:18:02.671Z,10
2023-05-24T06:19:06.332Z,10
2023-05-24T06:20:03.005Z,10
2023-05-24T06:21:02.537Z,10
2023-05-24T06:22:02.833Z,10
2023-05-24T06:23:02.486Z,10
2023-05-24T06:24:02.924Z,10
2023-05-24T06:25:03.234Z,10
2023-05-24T06:26:02.813Z,10
2023-05-24T06:27:05.168Z,10
2023-05-24T06:28:02.990Z,9
2023-05-24T06:29:02.142Z,10
2023-05-24T06:30:02.132Z,10
2023-05-24T06:31:01.951Z,9
2023-05-24T06:32:01.954Z,10
2023-05-24T06:33:02.278Z,10
2023-05-24T06:34:04.573Z,9
2023-05-24T06:35:02.068Z,9
2023-05-24T06:36:02.427Z,9
2023-05-24T06:37:02.427Z,9
2023-05-24T06:38:02.508Z,9
2023-05-24T06:39:02.267Z,9
2023-05-24T06:40:02.529Z,9
2023-05-24T06:41:02.758Z,9
2023-05-24T06:42:02.561Z,9
2023-05-24T06:43:02.594Z,8
2023-05-24T06:44:02.454Z,8
2023-05-24T06:45:02.555Z,8
2023-05-24T06:46:02.798Z,8
2023-05-24T06:47:03.043Z,8
2023-05-24T06:48:02.839Z,8
2023-05-24T06:49:02.316Z,8
2023-05-24T06:50:01.832Z,8
2023-05-24T06:51:02.108Z,8
2023-05-24T06:52:02.132Z,8
2023-05-24T06:53:02.137Z,8
2023-05-24T06:54:02.610Z,7
2023-05-24T06:55:02.896Z,7
2023-05-24T06:56:02.719Z,7
2023-05-24T06:57:02.955Z,7
2023-05-24T06:58:02.698Z,7
2023-05-24T06:59:02.201Z,7
2023-05-24T07:00:02.213Z,7
2023-05-24T07:01:02.564Z,7
2023-05-24T07:02:04.177Z,7
2023-05-24T07:03:02.557Z,6
2023-05-24T07:04:02.844Z,6
2023-05-24T07:05:02.433Z,6
2023-05-24T07:06:02.498Z,6
2023-05-24T07:07:02.502Z,6
2023-05-24T07:08:02.241Z,6
2023-05-24T07:09:02.261Z,6
2023-05-24T07:10:02.132Z,6
2023-05-24T07:11:01.950Z,6
2023-05-24T07:12:01.625Z,6
2023-05-24T07:13:01.787Z,6
2023-05-24T07:14:01.915Z,6
2023-05-24T07:15:02.462Z,6
2023-05-24T07:16:02.418Z,6
2023-05-24T07:17:02.048Z,6
2023-05-24T07:18:02.581Z,6
2023-05-24T07:19:04.726Z,6
2023-05-24T07:20:02.591Z,6
2023-05-24T07:21:02.399Z,6
2023-05-24T07:22:02.406Z,6
2023-05-24T07:23:02.596Z,6
2023-05-24T07:24:02.048Z,5
2023-05-24T07:25:01.725Z,5
2023-05-24T07:26:02.238Z,5
2023-05-24T07:27:01.753Z,6
2023-05-24T07:28:02.204Z,5
2023-05-24T07:29:02.165Z,5
2023-05-24T07:30:02.413Z,5
2023-05-24T07:31:02.269Z,5
2023-05-24T07:32:02.199Z,5
2023-05-24T07:33:02.463Z,5
2023-05-24T07:34:02.760Z,5
2023-05-24T07:35:03.022Z,5
2023-05-24T07:36:02.654Z,5
2023-05-24T07:37:03.092Z,5
2023-05-24T07:38:02.506Z,5
2023-05-24T07:39:02.734Z,5
2023-05-24T07:40:02.534Z,5
2023-05-24T07:41:02.779Z,4
2023-05-24T07:42:02.266Z,5
2023-05-24T07:43:04.027Z,5
2023-05-24T07:44:02.042Z,5
2023-05-24T07:45:02.005Z,4
2023-05-24T07:46:02.346Z,5
2023-05-24T07:47:01.751Z,5
2023-05-24T07:48:02.364Z,4
2023-05-24T07:49:02.284Z,5
2023-05-24T07:50:02.853Z,4
2023-05-24T07:51:02.610Z,5
2023-05-24T07:52:02.664Z,5
2023-05-24T07:53:02.378Z,4
2023-05-24T07:54:02.700Z,4
2023-05-24T07:55:02.762Z,4
2023-05-24T07:56:02.420Z,4
2023-05-24T07:57:02.293Z,4
2023-05-24T07:58:02.292Z,4
2023-05-24T07:59:02.715Z,4
2023-05-24T08:00:03.100Z,4
2023-05-24T08:01:02.961Z,5
2023-05-24T08:02:02.528Z,4
2023-05-24T08:03:03.192Z,5
2023-05-24T08:04:03.333Z,4
2023-05-24T08:05:03.037Z,4
2023-05-24T08:06:03.005Z,4
2023-05-24T08:07:02.987Z,4
2023-05-24T08:08:03.097Z,4
2023-05-24T08:09:02.917Z,4
2023-05-24T08:10:03.315Z,4
2023-05-24T08:11:03.362Z,4
2023-05-24T08:12:03.082Z,4
2023-05-24T08:13:02.984Z,4
2023-05-24T08:14:02.952Z,4
2023-05-24T08:15:03.438Z,4
2023-05-24T08:16:03.488Z,4
2023-05-24T08:17:03.016Z,4
2023-05-24T08:18:03.314Z,4
2023-05-24T08:19:02.494Z,4
2023-05-24T08:20:02.992Z,4
2023-05-24T08:21:02.740Z,4
2023-05-24T08:22:02.646Z,4
2023-05-24T08:23:02.575Z,4
2023-05-24T08:24:02.956Z,3
2023-05-24T08:25:03.251Z,4
2023-05-24T08:26:02.961Z,4
2023-05-24T08:27:02.921Z,4
2023-05-24T08:28:03.158Z,4
2023-05-24T08:29:02.276Z,3
2023-05-24T08:30:02.262Z,4
2023-05-24T08:31:02.071Z,4
2023-05-24T08:32:02.340Z,4
2023-05-24T08:33:02.273Z,3
2023-05-24T08:34:02.368Z,3
2023-05-24T08:35:18.480Z,3
2023-05-24T08:36:02.542Z,4
2023-05-24T08:37:02.211Z,3
2023-05-24T08:38:02.205Z,3
2023-05-24T08:39:02.980Z,3
2023-05-24T08:40:02.863Z,3
2023-05-24T08:41:02.805Z,3
2023-05-24T08:43:02.795Z,3
2023-05-24T08:44:02.020Z,3
2023-05-24T08:45:02.140Z,3
2023-05-24T08:46:02.579Z,3
2023-05-24T08:47:02.651Z,3
2023-05-24T08:48:02.604Z,3
2023-05-24T08:49:02.766Z,3
2023-05-24T08:50:02.820Z,3
2023-05-24T08:51:02.379Z,3
2023-05-24T08:52:02.415Z,3
2023-05-24T08:53:02.826Z,3
2023-05-24T08:54:02.943Z,3
2023-05-24T08:55:03.199Z,3
2023-05-24T08:56:03.202Z,3
2023-05-24T08:57:03.447Z,3
2023-05-24T08:58:03.163Z,3
2023-05-24T08:59:02.139Z,3
2023-05-24T09:00:02.673Z,3
2023-05-24T09:01:02.590Z,3
2023-05-24T09:02:02.277Z,3
2023-05-24T09:03:02.834Z,3
2023-05-24T09:04:02.724Z,3
2023-05-24T09:05:02.322Z,3
2023-05-24T09:06:02.610Z,3
2023-05-24T09:07:02.461Z,3
2023-05-24T09:08:02.713Z,3
2023-05-24T09:09:02.748Z,3
2023-05-24T09:10:02.616Z,3
2023-05-24T09:11:03.070Z,3
2023-05-24T09:12:02.762Z,4
2023-05-24T09:13:03.085Z,3
2023-05-24T09:14:01.761Z,3
2023-05-24T09:15:02.101Z,3
2023-05-24T09:16:02.419Z,3
2023-05-24T09:17:02.298Z,3
2023-05-24T09:18:02.429Z,3
2023-05-24T09:19:02.267Z,3
2023-05-24T09:20:01.922Z,3
2023-05-24T09:21:02.354Z,3
2023-05-24T09:22:01.820Z,3
2023-05-24T09:23:02.405Z,3
2023-05-24T09:24:02.851Z,3
2023-05-24T09:25:02.696Z,3
2023-05-24T09:26:02.430Z,3
2023-05-24T09:27:02.778Z,3
2023-05-24T09:28:02.802Z,3
2023-05-24T09:29:02.255Z,3
2023-05-24T09:30:02.063Z,3
2023-05-24T09:31:05.365Z,3
2023-05-24T09:32:02.134Z,3
2023-05-24T09:33:01.868Z,3
2023-05-24T09:34:01.954Z,3
2023-05-24T09:35:02.609Z,3
2023-05-24T09:36:02.401Z,3
2023-05-24T09:37:01.870Z,3
2023-05-24T09:38:02.484Z,3
2023-05-24T09:39:02.817Z,3
2023-05-24T09:40:02.660Z,3
2023-05-24T09:41:03.031Z,3
2023-05-24T09:42:02.629Z,3
2023-05-24T09:43:03.012Z,2
2023-05-24T09:44:02.108Z,2
2023-05-24T09:45:02.092Z,3
2023-05-24T09:46:01.739Z,3
2023-05-24T09:47:02.163Z,3
2023-05-24T09:48:01.985Z,3
2023-05-24T09:49:02.384Z,3
2023-05-24T09:50:02.205Z,3
2023-05-24T09:51:02.280Z,2
2023-05-24T09:52:02.416Z,2
2023-05-24T09:53:02.154Z,2
2023-05-24T09:54:02.150Z,3
2023-05-24T09:55:02.077Z,3
2023-05-24T09:56:02.609Z,3
2023-05-24T09:57:03.403Z,2
2023-05-24T09:58:02.509Z,2
2023-05-24T09:59:02.420Z,3
2023-05-24T10:00:02.512Z,2
2023-05-24T10:01:02.874Z,2
2023-05-24T10:02:02.298Z,3
2023-05-24T10:03:02.606Z,3
2023-05-24T10:04:05.512Z,2
2023-05-24T10:05:03.806Z,3
2023-05-24T10:06:03.470Z,3
2023-05-24T10:07:03.961Z,3
2023-05-24T10:08:03.960Z,2
2023-05-24T10:09:02.531Z,2
2023-05-24T10:10:04.151Z,2
2023-05-24T10:11:02.551Z,2
2023-05-24T10:12:03.103Z,2
2023-05-24T10:13:02.844Z,2
2023-05-24T10:14:03.112Z,2
2023-05-24T10:15:02.644Z,2
2023-05-24T10:16:02.826Z,2
2023-05-24T10:17:03.305Z,2
2023-05-24T10:18:03.369Z,2
2023-05-24T10:19:03.724Z,2
2023-05-24T10:20:03.324Z,2
2023-05-24T10:21:03.430Z,2
2023-05-24T10:22:03.335Z,2
2023-05-24T10:23:03.449Z,2
2023-05-24T10:24:03.628Z,2
2023-05-24T10:25:03.511Z,2
2023-05-24T10:26:03.553Z,2
2023-05-24T10:27:03.567Z,2
2023-05-24T10:28:03.848Z,2
2023-05-24T10:29:03.352Z,2
2023-05-24T10:30:04.155Z,2
2023-05-24T10:31:03.067Z,2
2023-05-24T10:32:03.148Z,2
2023-05-24T10:33:03.406Z,2
2023-05-24T10:34:07.992Z,2
2023-05-24T10:35:03.329Z,2
2023-05-24T10:36:03.585Z,2
2023-05-24T10:37:03.387Z,2
2023-05-24T10:38:03.639Z,2
2023-05-24T10:39:02.832Z,2
2023-05-24T10:40:03.197Z,2
2023-05-24T10:41:03.199Z,2
2023-05-24T10:42:03.369Z,2
2023-05-24T10:43:03.201Z,2
2023-05-24T10:45:03.377Z,2
2023-05-24T10:46:03.560Z,2
2023-05-24T10:47:03.875Z,2
2023-05-24T10:48:03.385Z,2
2023-05-24T10:49:03.113Z,2
2023-05-24T10:50:02.955Z,2
2023-05-24T10:51:03.161Z,3
2023-05-24T10:52:02.807Z,3
2023-05-24T10:53:03.357Z,2
2023-05-24T10:54:03.390Z,2
2023-05-24T10:55:04.363Z,2
2023-05-24T10:56:02.792Z,2
2023-05-24T10:57:03.432Z,2
2023-05-24T10:58:02.988Z,2
2023-05-24T10:59:03.447Z,2
2023-05-24T11:00:03.415Z,2
2023-05-24T11:01:03.420Z,2
2023-05-24T11:02:03.420Z,2
2023-05-24T11:03:03.093Z,2
2023-05-24T11:04:02.804Z,2
2023-05-24T11:05:02.914Z,2
2023-05-24T11:06:02.825Z,2
2023-05-24T11:07:02.384Z,2
2023-05-24T11:08:02.321Z,2
2023-05-24T11:09:02.487Z,2
2023-05-24T11:10:02.916Z,2
2023-05-24T11:11:15.005Z,2
2023-05-24T11:12:02.576Z,2
2023-05-24T11:13:03.028Z,2
2023-05-24T11:14:03.318Z,2
2023-05-24T11:15:03.420Z,2
2023-05-24T11:16:03.054Z,2
2023-05-24T11:17:03.274Z,2
2023-05-24T11:18:03.435Z,2
2023-05-24T11:19:03.535Z,2
2023-05-24T11:20:03.260Z,2
2023-05-24T11:21:03.330Z,2
2023-05-24T11:22:03.653Z,2
2023-05-24T11:23:03.455Z,2
2023-05-24T11:24:02.693Z,2
2023-05-24T11:25:02.984Z,2
2023-05-24T11:26:03.201Z,2
2023-05-24T11:27:02.998Z,2
2023-05-24T11:28:02.835Z,2
2023-05-24T11:29:05.208Z,2
2023-05-24T11:30:03.000Z,2
2023-05-24T11:31:03.020Z,2
2023-05-24T11:32:03.223Z,2
2023-05-24T11:33:03.220Z,2
2023-05-24T11:34:03.551Z,2
2023-05-24T11:35:03.117Z,2
2023-05-24T11:36:03.492Z,2
2023-05-24T11:37:03.377Z,2
2023-05-24T11:38:03.355Z,2
2023-05-24T11:39:03.383Z,2
2023-05-24T11:40:03.551Z,2
2023-05-24T11:41:03.585Z,2
2023-05-24T11:42:03.618Z,2
2023-05-24T11:43:02.942Z,2
2023-05-24T11:44:02.625Z,2
2023-05-24T11:45:03.080Z,2
2023-05-24T11:46:02.961Z,2
2023-05-24T11:47:02.778Z,2
2023-05-24T11:48:02.945Z,2
2023-05-24T11:49:03.259Z,2
2023-05-24T11:50:03.146Z,2
2023-05-24T11:51:03.417Z,2
2023-05-24T11:52:03.555Z,2
2023-05-24T11:53:03.757Z,2
2023-05-24T11:54:02.711Z,2
2023-05-24T11:55:03.182Z,2
2023-05-24T11:56:02.984Z,2
2023-05-24T11:57:03.103Z,2
2023-05-24T11:58:03.121Z,2
2023-05-24T11:59:03.674Z,2
2023-05-24T12:00:03.217Z,2
2023-05-24T12:01:03.343Z,2
2023-05-24T12:02:03.327Z,2
2023-05-24T12:03:03.358Z,2
2023-05-24T12:04:03.273Z,2
2023-05-24T12:05:03.121Z,2
2023-05-24T12:06:03.223Z,2
2023-05-24T12:07:02.759Z,2
2023-05-24T12:08:02.770Z,2
2023-05-24T12:09:03.590Z,2
2023-05-24T12:10:03.427Z,2
2023-05-24T12:11:03.278Z,2
2023-05-24T12:12:03.099Z,2
2023-05-24T12:13:03.369Z,2
2023-05-24T12:14:02.259Z,2
2023-05-24T12:15:02.366Z,2
2023-05-24T12:16:02.273Z,2
2023-05-24T12:17:02.331Z,2
2023-05-24T12:18:02.280Z,2
2023-05-24T12:19:09.512Z,2
2023-05-24T12:20:02.578Z,2
2023-05-24T12:21:02.353Z,2
2023-05-24T12:22:02.488Z,2
2023-05-24T12:23:03.024Z,2
2023-05-24T12:24:02.716Z,2
2023-05-24T12:25:03.169Z,2
2023-05-24T12:26:03.087Z,2
2023-05-24T12:27:02.649Z,2
2023-05-24T12:28:03.200Z,2
2023-05-24T12:29:03.319Z,2
2023-05-24T12:30:03.617Z,2
2023-05-24T12:31:03.043Z,2
2023-05-24T12:32:03.350Z,2
2023-05-24T12:33:03.523Z,2
2023-05-24T12:34:03.004Z,2
2023-05-24T12:35:03.037Z,2
2023-05-24T12:36:02.956Z,2
2023-05-24T12:37:02.983Z,2
2023-05-24T12:38:03.011Z,2
2023-05-24T12:39:03.211Z,2
2023-05-24T12:40:03.393Z,2
2023-05-24T12:41:12.951Z,2
2023-05-24T12:42:02.819Z,2
2023-05-24T12:43:03.466Z,2
2023-05-24T12:44:02.663Z,2
2023-05-24T12:45:02.481Z,2
2023-05-24T12:46:02.592Z,2
2023-05-24T12:47:02.758Z,2
2023-05-24T12:48:02.390Z,2
2023-05-24T12:49:03.633Z,2
2023-05-24T12:50:03.244Z,2
2023-05-24T12:51:03.454Z,2
2023-05-24T12:52:03.018Z,2
2023-05-24T12:53:03.230Z,2
2023-05-24T12:54:02.612Z,2
2023-05-24T12:55:02.440Z,2
2023-05-24T12:56:02.538Z,2
2023-05-24T12:57:02.964Z,2
2023-05-24T12:58:02.546Z,2
2023-05-24T12:59:02.530Z,2
2023-05-24T13:00:02.324Z,2
2023-05-24T13:01:02.587Z,2
2023-05-24T13:02:02.774Z,2
2023-05-24T13:03:02.853Z,2
2023-05-24T13:04:03.032Z,2
2023-05-24T13:05:03.055Z,2
2023-05-24T13:06:02.983Z,2
2023-05-24T13:07:03.361Z,2
2023-05-24T13:08:02.888Z,2
2023-05-24T13:09:03.103Z,2
2023-05-24T13:10:02.847Z,2
2023-05-24T13:11:03.376Z,2
2023-05-24T13:12:03.370Z,2
2023-05-24T13:13:02.771Z,2
2023-05-24T13:14:02.680Z,2
2023-05-24T13:15:02.581Z,2
2023-05-24T13:16:02.610Z,2
2023-05-24T13:17:02.865Z,2
2023-05-24T13:18:03.203Z,2
2023-05-24T13:19:02.578Z,2
2023-05-24T13:20:02.801Z,2
2023-05-24T13:21:02.590Z,2
2023-05-24T13:22:02.731Z,2
2023-05-24T13:23:02.787Z,2
2023-05-24T13:24:03.367Z,2
2023-05-24T13:25:03.189Z,2
2023-05-24T13:26:02.817Z,2
2023-05-24T13:27:03.381Z,2
2023-05-24T13:28:03.461Z,2
2023-05-24T13:30:03.091Z,2
2023-05-24T13:31:03.173Z,2
2023-05-24T13:32:03.562Z,2
2023-05-24T13:33:03.009Z,2
2023-05-24T13:34:03.173Z,2
2023-05-24T13:35:04.621Z,2
2023-05-24T13:36:02.948Z,2
2023-05-24T13:37:02.746Z,2
2023-05-24T13:38:02.871Z,1
2023-05-24T13:39:14.803Z,2
2023-05-24T13:40:03.545Z,2
2023-05-24T13:41:03.323Z,2
2023-05-24T13:42:03.234Z,2
2023-05-24T13:43:03.646Z,2
2023-05-24T13:44:02.902Z,2
2023-05-24T13:45:02.769Z,2
2023-05-24T13:46:03.367Z,2
2023-05-24T13:47:03.381Z,2
2023-05-24T13:48:03.181Z,2
2023-05-24T13:49:03.487Z,2
2023-05-24T13:50:03.408Z,2
2023-05-24T13:51:03.112Z,2
2023-05-24T13:52:03.327Z,2
2023-05-24T13:53:03.203Z,2
2023-05-24T13:54:03.551Z,2
2023-05-24T13:55:03.214Z,2
2023-05-24T13:56:03.350Z,2
2023-05-24T13:57:03.626Z,2
2023-05-24T13:58:03.567Z,2
2023-05-24T14:20:55.192Z,2
2023-05-24T14:21:55.623Z,2
2023-05-24T14:22:57.733Z,2
2023-05-24T14:23:55.200Z,2
2023-05-24T14:24:55.071Z,2
2023-05-24T14:25:54.659Z,2
2023-05-24T14:26:54.889Z,2
2023-05-24T14:27:54.588Z,2
2023-05-24T14:28:56.748Z,2
2023-05-24T14:29:54.876Z,2
2023-05-24T14:30:54.758Z,2
2023-05-24T14:31:54.957Z,2
2023-05-24T14:32:54.714Z,2
2023-05-24T14:33:54.928Z,2
2023-05-24T14:34:55.196Z,2
2023-05-24T14:35:55.153Z,2
2023-05-24T14:36:55.257Z,2
2023-05-24T14:37:55.526Z,3
2023-05-24T14:38:55.391Z,2
2023-05-24T14:39:54.632Z,2
2023-05-24T14:40:55.251Z,2
2023-05-24T14:41:54.689Z,2
2023-05-24T14:42:55.223Z,2
2023-05-24T14:43:55.225Z,3
2023-05-24T14:44:55.515Z,2
2023-05-24T14:45:55.532Z,2
2023-05-24T14:46:55.767Z,2
2023-05-24T14:47:55.224Z,2
2023-05-24T14:48:55.319Z,2
2023-05-24T14:49:54.910Z,2
2023-05-24T14:50:54.880Z,2
2023-05-24T14:51:55.054Z,2
2023-05-24T14:52:55.744Z,2
2023-05-24T14:53:54.881Z,3
2023-05-24T14:54:55.413Z,2
2023-05-24T14:55:55.326Z,3
2023-05-24T14:56:55.273Z,3
2023-05-24T14:57:55.107Z,3
2023-05-24T14:58:55.348Z,2
2023-05-24T14:59:55.054Z,2
2023-05-24T15:00:55.182Z,2
2023-05-24T15:01:55.109Z,2
2023-05-24T15:02:54.939Z,2
2023-05-24T15:03:54.785Z,3
2023-05-24T15:04:55.218Z,3
2023-05-24T15:05:55.532Z,3
2023-05-24T15:06:55.611Z,3
2023-05-24T15:07:55.656Z,2